createdAt,value
2022-12-04T00:00:13.321Z,71.73
2022-12-04T00:02:41.412Z,72.54
2022-12-04T00:05:09.937Z,73.16
2022-12-04T00:07:37.357Z,73.47
2022-12-04T00:10:05.003Z,73.05
2022-12-04T00:12:32.095Z,72.99
2022-12-04T00:17:49.322Z,72.97
2022-12-04T00:20:16.359Z,73.37
2022-12-04T00:22:43.264Z,73.35
2022-12-04T00:25:10.256Z,73.04
2022-12-04T00:27:37.156Z,73.34
2022-12-04T00:30:04.894Z,73.66
2022-12-04T00:32:31.994Z,73.48
2022-12-04T00:34:58.888Z,72.83
2022-12-04T00:37:25.879Z,72.95
2022-12-04T00:39:53.164Z,73.10
2022-12-04T00:42:20.299Z,72.68
2022-12-04T00:44:47.226Z,71.98
2022-12-04T00:47:14.316Z,72.15
2022-12-04T00:49:41.247Z,72.30
2022-12-04T00:52:08.259Z,72.33
2022-12-04T00:54:35.153Z,73.08
2022-12-04T00:57:02.185Z,73.16
2022-12-04T00:59:29.209Z,73.27
2022-12-04T01:01:56.264Z,73.03
2022-12-04T01:04:23.223Z,72.63
2022-12-04T01:06:50.332Z,72.42
2022-12-04T01:09:17.273Z,72.17
2022-12-04T01:11:44.252Z,72.65
2022-12-04T01:14:11.171Z,72.63
2022-12-04T01:16:40.202Z,73.06
2022-12-04T01:19:10.073Z,72.70
2022-12-04T01:21:37.951Z,72.66
2022-12-04T01:24:05.446Z,73.32
2022-12-04T01:26:32.753Z,73.29
2022-12-04T01:28:59.841Z,72.45
2022-12-04T01:31:27.095Z,72.65
2022-12-04T01:33:54.347Z,72.76
2022-12-04T01:36:24.908Z,72.18
2022-12-04T01:38:51.905Z,72.27
2022-12-04T01:41:23.298Z,71.60
2022-12-04T01:44:11.724Z,71.72
2022-12-04T01:46:39.814Z,71.78
2022-12-04T01:49:10.849Z,71.65
2022-12-04T01:51:42.546Z,71.39
2022-12-04T01:54:15.151Z,71.77
2022-12-04T01:56:55.101Z,70.83
2022-12-04T01:59:26.897Z,71.71
2022-12-04T02:02:02.860Z,71.60
2022-12-04T02:04:33.460Z,71.83
2022-12-04T02:07:00.451Z,71.58
2022-12-04T02:09:29.231Z,71.85
2022-12-04T02:12:24.321Z,70.66
2022-12-04T02:15:08.853Z,71.65
2022-12-04T02:18:16.476Z,71.59
2022-12-04T02:21:17.304Z,71.63
2022-12-04T02:23:53.521Z,72.75
2022-12-04T02:26:44.943Z,72.05
2022-12-04T02:29:45.132Z,72.17
2022-12-04T02:32:29.189Z,71.45
2022-12-04T02:34:58.533Z,71.13
2022-12-04T02:37:32.800Z,71.79
2022-12-04T02:40:08.817Z,71.81
2022-12-04T02:42:58.129Z,72.22
2022-12-04T02:45:47.359Z,72.80
2022-12-04T02:48:20.928Z,71.41
2022-12-04T02:50:52.180Z,71.22
2022-12-04T02:53:30.798Z,71.12
2022-12-04T02:56:03.601Z,71.10
2022-12-04T02:58:36.767Z,71.28
2022-12-04T03:01:21.329Z,71.21
2022-12-04T03:03:57.723Z,71.48
2022-12-04T03:06:27.170Z,70.90
2022-12-04T03:09:00.856Z,71.51
2022-12-04T03:11:31.433Z,71.93
2022-12-04T03:14:07.492Z,71.74
2022-12-04T03:16:40.159Z,72.19
2022-12-04T03:19:18.818Z,71.88
2022-12-04T03:21:54.268Z,71.31
2022-12-04T03:24:44.934Z,71.47
2022-12-04T03:27:29.932Z,71.72
2022-12-04T03:30:11.266Z,72.50
2022-12-04T03:32:52.961Z,71.54
2022-12-04T03:35:47.309Z,71.88
2022-12-04T03:38:30.420Z,71.55
2022-12-04T03:41:03.509Z,72.00
2022-12-04T03:43:51.602Z,72.38
2022-12-04T03:46:28.187Z,71.82
2022-12-04T03:49:03.456Z,71.93
2022-12-04T03:51:38.220Z,71.99
2022-12-04T03:54:28.481Z,71.95
2022-12-04T03:57:22.937Z,72.70
2022-12-04T03:59:55.628Z,71.86
2022-12-04T04:02:26.230Z,72.33
2022-12-04T04:04:57.356Z,71.94
2022-12-04T04:07:35.752Z,71.85
2022-12-04T04:10:15.329Z,72.00
2022-12-04T04:13:14.319Z,71.30
2022-12-04T04:16:12.127Z,71.32
2022-12-04T04:19:00.617Z,70.94
2022-12-04T04:21:48.821Z,70.44
2022-12-04T04:24:35.968Z,70.36
2022-12-04T04:27:03.840Z,70.85
2022-12-04T04:29:30.780Z,71.32
2022-12-04T04:32:28.263Z,71.03
2022-12-04T04:35:05.660Z,70.85
2022-12-04T04:37:48.855Z,71.50
2022-12-04T04:40:30.617Z,70.59
2022-12-04T04:43:09.289Z,71.51
2022-12-04T04:45:51.320Z,70.15
2022-12-04T04:48:30.360Z,71.58
2022-12-04T04:51:00.110Z,71.85
2022-12-04T04:53:33.966Z,71.51
2022-12-04T04:56:01.250Z,70.64
2022-12-04T04:58:28.146Z,70.37
2022-12-04T05:01:06.865Z,70.07
2022-12-04T05:03:34.224Z,70.98
2022-12-04T05:06:01.571Z,70.38
2022-12-04T05:08:28.704Z,70.10
2022-12-04T05:10:55.773Z,70.98
2022-12-04T05:13:23.132Z,69.33
2022-12-04T05:16:06.357Z,70.57
2022-12-04T05:18:35.246Z,70.48
2022-12-04T05:21:06.816Z,69.41
2022-12-04T05:23:34.113Z,70.58
2022-12-04T05:26:03.111Z,70.56
2022-12-04T05:28:30.219Z,70.89
2022-12-04T05:30:58.650Z,70.03
2022-12-04T05:33:25.753Z,70.24
2022-12-04T05:36:10.546Z,70.16
2022-12-04T05:38:38.095Z,69.90
2022-12-04T05:41:06.868Z,70.00
2022-12-04T05:43:34.609Z,70.25
2022-12-04T05:46:03.510Z,70.09
2022-12-04T05:48:30.605Z,68.66
2022-12-04T05:50:57.517Z,68.64
2022-12-04T05:53:24.409Z,70.01
2022-12-04T05:55:59.267Z,69.21
2022-12-04T05:58:26.589Z,68.03
2022-12-04T06:00:53.771Z,68.50
2022-12-04T06:03:20.868Z,69.26
2022-12-04T06:05:47.763Z,68.12
2022-12-04T06:08:14.934Z,67.89
2022-12-04T06:10:42.062Z,68.85
2022-12-04T06:13:08.987Z,68.91
2022-12-04T06:15:40.374Z,67.75
2022-12-04T06:18:07.900Z,68.49
2022-12-04T06:20:35.330Z,67.52
2022-12-04T06:23:02.472Z,67.15
2022-12-04T06:25:29.448Z,67.89
2022-12-04T06:27:56.339Z,67.13
2022-12-04T06:30:23.376Z,67.46
2022-12-04T06:32:50.456Z,66.71
2022-12-04T06:35:17.338Z,66.84
2022-12-04T06:37:44.384Z,65.97
2022-12-04T06:40:11.579Z,66.08
2022-12-04T06:42:38.490Z,65.75
2022-12-04T06:45:06.605Z,66.37
2022-12-04T06:47:35.250Z,66.06
2022-12-04T06:50:02.438Z,65.56
2022-12-04T06:52:33.723Z,64.82
2022-12-04T06:55:01.005Z,65.25
2022-12-04T06:57:27.947Z,64.10
2022-12-04T06:59:55.262Z,63.85
2022-12-04T07:02:23.060Z,64.55
2022-12-04T07:04:50.082Z,63.64
2022-12-04T07:07:17.043Z,61.78
2022-12-04T07:09:44.416Z,63.25
2022-12-04T07:12:11.392Z,62.22
2022-12-04T07:14:38.413Z,62.25
2022-12-04T07:17:05.469Z,61.84
2022-12-04T07:19:32.565Z,62.55
2022-12-04T07:21:59.494Z,61.97
2022-12-04T07:24:26.401Z,62.46
2022-12-04T07:26:53.385Z,61.58
2022-12-04T07:29:20.402Z,61.40
2022-12-04T07:31:47.385Z,60.87
2022-12-04T07:34:14.398Z,60.66
2022-12-04T07:36:41.251Z,61.01
2022-12-04T07:39:08.264Z,60.72
2022-12-04T07:41:35.693Z,60.98
2022-12-04T07:44:06.934Z,60.81
2022-12-04T07:46:34.037Z,61.06
2022-12-04T07:49:01.045Z,59.90
2022-12-04T07:51:29.633Z,59.57
2022-12-04T07:54:02.837Z,59.57
2022-12-04T07:56:30.952Z,59.61
2022-12-04T07:58:59.525Z,59.43
2022-12-04T08:01:26.544Z,59.47
2022-12-04T08:03:57.083Z,58.77
2022-12-04T08:06:26.205Z,58.86
2022-12-04T08:08:53.664Z,58.09
2022-12-04T08:11:23.087Z,57.82
2022-12-04T08:13:55.794Z,57.78
2022-12-04T08:16:22.858Z,57.66
2022-12-04T08:18:50.359Z,58.06
2022-12-04T08:21:21.126Z,57.12
2022-12-04T08:23:51.403Z,57.86
2022-12-04T08:26:20.578Z,55.84
2022-12-04T08:28:48.106Z,55.01
2022-12-04T08:31:19.422Z,54.16
2022-12-04T08:33:47.896Z,53.24
2022-12-04T08:36:17.545Z,52.19
2022-12-04T08:38:44.543Z,52.48
2022-12-04T08:41:16.456Z,53.61
2022-12-04T08:43:43.465Z,52.61
2022-12-04T08:46:18.664Z,51.21
2022-12-04T08:48:46.142Z,51.28
2022-12-04T08:51:19.104Z,52.63
2022-12-04T08:53:46.478Z,51.83
2022-12-04T08:56:13.811Z,52.71
2022-12-04T08:58:40.800Z,52.66
2022-12-04T09:01:12.768Z,52.37
2022-12-04T09:03:40.374Z,53.61
2022-12-04T09:06:09.993Z,52.27
2022-12-04T09:08:37.042Z,53.17
2022-12-04T09:11:13.321Z,50.82
2022-12-04T09:13:41.650Z,50.35
2022-12-04T09:16:11.828Z,51.24
2022-12-04T09:18:39.319Z,48.83
2022-12-04T09:21:08.571Z,49.51
2022-12-04T09:23:36.822Z,50.61
2022-12-04T09:26:05.028Z,50.08
2022-12-04T09:28:32.317Z,49.31
2022-12-04T09:31:01.952Z,49.52
2022-12-04T09:33:30.948Z,48.92
2022-12-04T09:36:02.584Z,49.00
2022-12-04T09:38:30.517Z,48.29
2022-12-04T09:41:15.080Z,49.25
2022-12-04T09:44:00.046Z,48.22
2022-12-04T09:46:32.785Z,49.10
2022-12-04T09:49:05.052Z,49.30
2022-12-04T09:51:35.522Z,48.47
2022-12-04T09:54:29.620Z,46.01
2022-12-04T09:57:04.527Z,47.83
2022-12-04T09:59:33.288Z,48.32
2022-12-04T10:02:09.386Z,48.42
2022-12-04T10:04:36.369Z,48.09
2022-12-04T10:07:18.543Z,47.20
2022-12-04T10:09:56.024Z,48.27
2022-12-04T10:12:43.535Z,48.12
2022-12-04T10:15:25.348Z,47.58
2022-12-04T10:18:22.107Z,48.25
2022-12-04T10:21:11.486Z,47.54
2022-12-04T10:23:59.979Z,47.51
2022-12-04T10:26:36.375Z,47.95
2022-12-04T10:29:08.607Z,49.04
2022-12-04T10:31:37.914Z,49.05
2022-12-04T10:34:16.598Z,48.52
2022-12-04T10:36:49.384Z,47.92
2022-12-04T10:39:31.009Z,48.96
2022-12-04T10:42:01.806Z,48.00
2022-12-04T10:44:28.881Z,49.59
2022-12-04T10:47:02.109Z,49.49
2022-12-04T10:49:37.102Z,49.02
2022-12-04T10:52:05.502Z,49.65
2022-12-04T10:54:40.732Z,50.49
2022-12-04T10:57:10.162Z,50.15
2022-12-04T10:59:50.591Z,49.73
2022-12-04T11:02:17.559Z,49.47
2022-12-04T11:04:58.632Z,49.50
2022-12-04T11:07:29.087Z,49.83
2022-12-04T11:10:04.043Z,50.79
2022-12-04T11:12:32.311Z,49.76
2022-12-04T11:15:13.620Z,50.01
2022-12-04T11:17:40.864Z,50.38
2022-12-04T11:20:23.880Z,50.82
2022-12-04T11:23:00.267Z,50.69
2022-12-04T11:25:34.213Z,51.42
2022-12-04T11:28:03.423Z,50.62
2022-12-04T11:30:37.162Z,51.54
2022-12-04T11:33:16.463Z,51.71
2022-12-04T11:35:43.541Z,51.12
2022-12-04T11:38:18.570Z,51.95
2022-12-04T11:40:55.289Z,52.34
2022-12-04T11:43:27.801Z,51.94
2022-12-04T11:45:55.985Z,52.07
2022-12-04T11:48:22.917Z,52.28
2022-12-04T11:50:55.772Z,53.29
2022-12-04T11:53:35.856Z,52.77
2022-12-04T11:56:19.673Z,52.42
2022-12-04T11:59:08.707Z,53.05
2022-12-04T12:01:58.831Z,53.47
2022-12-04T12:05:00.225Z,53.59
2022-12-04T12:07:51.332Z,53.19
2022-12-04T12:10:23.970Z,53.31
2022-12-04T12:13:18.659Z,52.96
2022-12-04T12:16:11.757Z,53.63
2022-12-04T12:18:56.999Z,53.25
2022-12-04T12:21:39.585Z,53.34
2022-12-04T12:24:15.511Z,53.36
2022-12-04T12:27:00.914Z,54.03
2022-12-04T12:29:50.631Z,54.30
2022-12-04T12:32:23.742Z,54.94
2022-12-04T12:34:51.599Z,55.10
2022-12-04T12:37:29.082Z,54.86
2022-12-04T12:40:10.781Z,55.36
2022-12-04T12:42:55.051Z,55.15
2022-12-04T12:45:30.724Z,55.14
2022-12-04T12:48:08.248Z,54.58
2022-12-04T12:51:28.657Z,55.43
2022-12-04T12:53:53.659Z,55.13
2022-12-04T12:56:31.472Z,55.57
2022-12-04T12:59:03.334Z,56.13
2022-12-04T13:01:39.316Z,56.70
2022-12-04T13:04:34.010Z,57.10
2022-12-04T13:07:20.834Z,56.64
2022-12-04T13:09:55.933Z,56.45
2022-12-04T13:12:24.032Z,57.09
2022-12-04T13:14:50.931Z,56.53
2022-12-04T13:17:32.619Z,56.68
2022-12-04T13:20:08.263Z,56.92
2022-12-04T13:22:55.147Z,57.50
2022-12-04T13:25:43.503Z,56.71
2022-12-04T13:28:25.719Z,57.39
2022-12-04T13:31:07.612Z,57.45
2022-12-04T13:33:59.783Z,58.65
2022-12-04T13:36:48.595Z,57.77
2022-12-04T13:39:34.567Z,58.09
2022-12-04T13:42:04.421Z,58.15
2022-12-04T13:44:34.445Z,57.31
2022-12-04T13:47:07.724Z,57.47
2022-12-04T13:49:45.935Z,57.57
2022-12-04T13:52:40.797Z,58.10
2022-12-04T13:55:26.388Z,57.88
2022-12-04T13:57:58.545Z,57.73
2022-12-04T14:00:36.141Z,58.14
2022-12-04T14:03:24.707Z,58.27
2022-12-04T14:05:52.686Z,58.32
2022-12-04T14:08:25.349Z,58.33
2022-12-04T14:11:03.493Z,58.47
2022-12-04T14:13:42.661Z,58.06
2022-12-04T14:16:21.124Z,58.55
2022-12-04T14:18:51.144Z,58.98
2022-12-04T14:21:18.307Z,59.08
2022-12-04T14:23:46.541Z,59.35
2022-12-04T14:29:54.598Z,59.30
2022-12-04T14:32:32.201Z,59.69
2022-12-04T14:34:59.684Z,59.62
2022-12-04T14:37:35.984Z,60.35
2022-12-04T14:40:07.172Z,59.95
2022-12-04T14:42:38.374Z,59.88
2022-12-04T14:45:20.408Z,60.26
2022-12-04T14:48:15.913Z,59.94
2022-12-04T14:50:55.216Z,59.96
2022-12-04T14:53:44.683Z,60.64
2022-12-04T14:56:11.587Z,59.62
2022-12-04T14:58:39.443Z,60.63
2022-12-04T15:01:29.468Z,60.09
2022-12-04T15:04:10.405Z,60.11
2022-12-04T15:06:39.613Z,59.63
2022-12-04T15:09:45.720Z,60.37
2022-12-04T15:12:35.430Z,60.48
2022-12-04T15:15:14.490Z,60.14
2022-12-04T15:17:41.424Z,60.85
2022-12-04T15:20:17.039Z,60.73
2022-12-04T15:22:44.845Z,61.56
2022-12-04T15:25:21.166Z,61.66
2022-12-04T15:27:52.733Z,61.22
2022-12-04T15:30:23.130Z,61.46
2022-12-04T15:32:53.566Z,61.89
2022-12-04T15:35:28.904Z,60.99
2022-12-04T15:37:56.252Z,61.53
2022-12-04T15:40:29.024Z,60.72
2022-12-04T15:43:07.492Z,60.77
2022-12-04T15:45:34.913Z,60.64
2022-12-04T15:48:02.076Z,60.79
2022-12-04T15:50:30.816Z,61.77
2022-12-04T15:53:06.666Z,61.55
2022-12-04T15:55:48.891Z,62.21
2022-12-04T15:58:30.036Z,61.81
2022-12-04T16:01:03.773Z,60.81
2022-12-04T16:03:34.838Z,60.96
2022-12-04T16:06:07.153Z,62.22
2022-12-04T16:08:37.258Z,61.81
2022-12-04T16:11:07.743Z,62.04
2022-12-04T16:13:38.078Z,61.20
2022-12-04T16:16:08.136Z,61.81
2022-12-04T16:18:35.235Z,61.03
2022-12-04T16:21:02.251Z,61.98
2022-12-04T16:23:29.351Z,62.18
2022-12-04T16:25:56.206Z,62.78
2022-12-04T16:28:23.295Z,62.96
2022-12-04T16:30:52.780Z,62.03
2022-12-04T16:33:19.895Z,62.96
2022-12-04T16:35:46.878Z,63.01
2022-12-04T16:38:16.609Z,62.92
2022-12-04T16:40:45.430Z,62.78
2022-12-04T16:43:14.338Z,62.36
2022-12-04T16:45:46.198Z,62.42
2022-12-04T16:48:13.811Z,61.83
2022-12-04T16:50:41.055Z,62.43
2022-12-04T16:53:08.087Z,62.49
2022-12-04T16:55:38.266Z,62.19
2022-12-04T16:58:06.175Z,62.93
2022-12-04T17:00:33.098Z,63.03
2022-12-04T17:03:04.149Z,61.94
2022-12-04T17:05:35.778Z,62.03
2022-12-04T17:08:02.972Z,62.62
2022-12-04T17:10:30.197Z,62.48
2022-12-04T17:12:57.337Z,61.56
2022-12-04T17:15:24.218Z,62.63
2022-12-04T17:17:51.735Z,61.88
2022-12-04T17:20:20.728Z,62.16
2022-12-04T17:22:48.391Z,62.09
2022-12-04T17:25:16.855Z,61.89
2022-12-04T17:27:44.231Z,63.04
2022-12-04T17:30:12.753Z,62.74
2022-12-04T17:32:39.934Z,63.04
2022-12-04T17:35:08.973Z,62.76
2022-12-04T17:37:36.575Z,63.13
2022-12-04T17:40:03.804Z,63.54
2022-12-04T17:42:30.845Z,63.11
2022-12-04T17:44:58.191Z,62.21
2022-12-04T17:47:25.438Z,64.36
2022-12-04T17:49:52.378Z,62.66
2022-12-04T17:52:22.248Z,62.61
2022-12-04T17:54:50.786Z,63.59
2022-12-04T17:57:19.170Z,62.94
2022-12-04T17:59:46.206Z,63.00
2022-12-04T18:02:13.482Z,63.81
2022-12-04T18:04:40.928Z,64.52
2022-12-04T18:07:08.669Z,64.11
2022-12-04T18:09:36.319Z,63.41
2022-12-04T18:12:03.808Z,62.91
2022-12-04T18:14:32.000Z,63.90
2022-12-04T18:16:59.184Z,64.01
2022-12-04T18:19:27.988Z,63.87
2022-12-04T18:21:55.758Z,65.00
2022-12-04T18:24:24.209Z,65.36
2022-12-04T18:26:51.503Z,64.85
2022-12-04T18:29:21.653Z,65.28
2022-12-04T18:31:48.928Z,64.58
2022-12-04T18:34:15.981Z,65.64
2022-12-04T18:36:45.421Z,65.26
2022-12-04T18:39:16.175Z,65.71
2022-12-04T18:41:43.773Z,66.12
2022-12-04T18:44:11.349Z,65.93
2022-12-04T18:46:38.857Z,65.24
2022-12-04T18:49:06.416Z,65.76
2022-12-04T18:51:44.572Z,64.90
2022-12-04T18:54:16.970Z,65.79
2022-12-04T18:56:44.250Z,65.42
2022-12-04T18:59:22.998Z,66.26
2022-12-04T19:01:50.736Z,64.79
2022-12-04T19:04:19.650Z,65.14
2022-12-04T19:06:51.706Z,65.43
2022-12-04T19:09:40.740Z,65.95
2022-12-04T19:12:11.977Z,65.51
2022-12-04T19:14:39.873Z,65.59
2022-12-04T19:17:06.955Z,65.72
2022-12-04T19:19:33.882Z,65.65
2022-12-04T19:22:01.302Z,66.84
2022-12-04T19:24:28.232Z,66.73
2022-12-04T19:26:55.161Z,65.63
2022-12-04T19:29:22.094Z,66.12
2022-12-04T19:31:49.135Z,66.18
2022-12-04T19:34:16.150Z,66.07
2022-12-04T19:36:45.454Z,66.56
2022-12-04T19:39:12.746Z,66.73
2022-12-04T19:41:41.630Z,67.63
2022-12-04T19:44:40.228Z,67.11
2022-12-04T19:46:56.728Z,66.61
2022-12-04T19:49:23.752Z,66.65
2022-12-04T19:51:50.893Z,68.02
2022-12-04T19:54:18.657Z,67.16
2022-12-04T19:56:51.102Z,68.33
2022-12-04T19:59:20.253Z,68.31
2022-12-04T20:01:47.557Z,67.01
2022-12-04T20:04:14.624Z,67.94
2022-12-04T20:06:45.508Z,67.16
2022-12-04T20:09:15.230Z,69.08
2022-12-04T20:11:42.658Z,68.82
2022-12-04T20:14:10.653Z,68.87
2022-12-04T20:16:38.753Z,68.52
2022-12-04T20:19:07.836Z,68.20
2022-12-04T20:21:35.177Z,68.78
2022-12-04T20:24:05.203Z,67.78
2022-12-04T20:26:35.915Z,68.65
2022-12-04T20:29:03.093Z,68.73
2022-12-04T20:31:38.682Z,68.23
2022-12-04T20:34:08.267Z,69.15
2022-12-04T20:36:42.910Z,68.32
2022-12-04T20:39:11.482Z,69.40
2022-12-04T20:41:39.097Z,68.08
2022-12-04T20:44:08.704Z,68.19
2022-12-04T20:46:38.481Z,68.88
2022-12-04T20:49:09.072Z,68.88
2022-12-04T20:51:39.230Z,68.22
2022-12-04T20:54:09.160Z,68.64
2022-12-04T20:56:37.725Z,69.07
2022-12-04T20:59:11.627Z,68.82
2022-12-04T21:01:39.384Z,69.37
2022-12-04T21:04:06.731Z,69.36
2022-12-04T21:06:36.778Z,68.64
2022-12-04T21:09:06.126Z,68.83
2022-12-04T21:11:39.112Z,68.64
2022-12-04T21:14:31.679Z,69.53
2022-12-04T21:16:59.095Z,69.33
2022-12-04T21:19:26.426Z,69.01
2022-12-04T21:21:54.304Z,69.13
2022-12-04T21:24:23.690Z,69.09
2022-12-04T21:26:50.565Z,68.96
2022-12-04T21:29:17.490Z,69.91
2022-12-04T21:31:45.048Z,70.47
2022-12-04T21:34:14.106Z,69.99
2022-12-04T21:36:41.525Z,69.90
2022-12-04T21:39:09.381Z,70.69
2022-12-04T21:41:54.803Z,69.31
2022-12-04T21:44:21.988Z,70.53
2022-12-04T21:46:49.811Z,69.89
2022-12-04T21:49:18.545Z,70.39
2022-12-04T21:51:57.464Z,70.38
2022-12-04T21:54:26.787Z,71.68
2022-12-04T21:56:54.504Z,71.11
2022-12-04T21:59:21.786Z,70.82
2022-12-04T22:01:48.816Z,70.89
2022-12-04T22:04:16.030Z,70.99
2022-12-04T22:06:43.654Z,70.46
2022-12-04T22:09:12.612Z,70.75
2022-12-04T22:11:41.632Z,70.94
2022-12-04T22:14:09.587Z,71.74
2022-12-04T22:16:41.646Z,71.67
2022-12-04T22:19:09.866Z,71.14
2022-12-04T22:21:36.791Z,71.48
2022-12-04T22:24:23.757Z,71.69
2022-12-04T22:26:50.670Z,71.75
2022-12-04T22:29:48.678Z,72.31
2022-12-04T22:32:04.548Z,71.96
2022-12-04T22:34:31.604Z,72.17
2022-12-04T22:36:58.559Z,71.99
2022-12-04T22:39:25.576Z,72.01
2022-12-04T22:41:52.545Z,72.46
2022-12-04T22:44:19.711Z,71.81
2022-12-04T22:46:47.068Z,72.02
2022-12-04T22:49:14.012Z,71.97
2022-12-04T22:51:40.948Z,72.05
2022-12-04T22:54:13.134Z,72.59
2022-12-04T22:56:40.166Z,72.07
2022-12-04T22:59:07.062Z,72.52
2022-12-04T23:01:34.667Z,72.96
2022-12-04T23:04:02.971Z,72.69
2022-12-04T23:06:31.491Z,72.43
2022-12-04T23:09:01.946Z,72.74
2022-12-04T23:11:29.753Z,72.60
2022-12-04T23:14:00.386Z,72.72
2022-12-04T23:16:29.604Z,72.83
2022-12-04T23:18:57.506Z,72.75
2022-12-04T23:21:25.851Z,72.88
2022-12-04T23:23:53.943Z,72.68
2022-12-04T23:26:41.989Z,72.90
2022-12-04T23:29:29.593Z,72.01
2022-12-04T23:31:56.163Z,72.27
2022-12-04T23:34:23.219Z,72.39
2022-12-04T23:36:50.023Z,72.18
2022-12-04T23:39:16.998Z,72.50
2022-12-04T23:41:43.868Z,72.04
2022-12-04T23:44:10.911Z,72.36
2022-12-04T23:46:37.849Z,72.69
2022-12-04T23:49:05.077Z,72.79
2022-12-04T23:51:31.932Z,72.29
2022-12-04T23:53:59.415Z,72.14
2022-12-04T23:56:27.786Z,72.11
2022-12-04T23:58:57.016Z,72.20
